createdAt,value
2023-03-18T00:01:16.519Z,1.00
2023-03-18T00:03:47.032Z,1.00
2023-03-18T00:06:19.338Z,1.00
2023-03-18T00:08:49.320Z,1.00
2023-03-18T00:11:19.595Z,1.00
2023-03-18T00:13:48.821Z,1.00
2023-03-18T00:16:17.671Z,1.00
2023-03-18T00:18:46.240Z,1.00
2023-03-18T00:21:14.963Z,1.00
2023-03-18T00:23:43.957Z,1.00
2023-03-18T00:26:12.790Z,1.00
2023-03-18T00:28:41.184Z,1.00
2023-03-18T00:31:11.756Z,1.00
2023-03-18T00:33:41.648Z,1.00
2023-03-18T00:36:14.563Z,1.00
2023-03-18T00:38:45.282Z,1.00
2023-03-18T00:41:16.627Z,1.00
2023-03-18T00:43:47.671Z,1.00
2023-03-18T00:46:18.564Z,1.00
2023-03-18T00:48:47.829Z,1.00
2023-03-18T00:51:18.768Z,1.00
2023-03-18T00:53:49.774Z,1.00
2023-03-18T00:56:20.292Z,1.00
2023-03-18T00:58:49.621Z,1.00
2023-03-18T01:01:18.584Z,1.00
2023-03-18T01:03:48.635Z,1.00
2023-03-18T01:06:21.712Z,1.00
2023-03-18T01:08:51.190Z,1.00
2023-03-18T01:11:20.311Z,1.00
2023-03-18T01:13:49.598Z,1.00
2023-03-18T01:16:18.752Z,1.00
2023-03-18T01:18:48.214Z,1.00
2023-03-18T01:21:17.953Z,1.00
2023-03-18T01:23:47.767Z,1.00
2023-03-18T01:26:16.183Z,1.00
2023-03-18T01:28:44.687Z,1.00
2023-03-18T01:31:13.571Z,1.00
2023-03-18T01:33:42.639Z,1.00
2023-03-18T01:36:11.451Z,1.00
2023-03-18T01:38:41.589Z,1.00
2023-03-18T01:41:10.507Z,1.00
2023-03-18T01:43:41.704Z,1.00
2023-03-18T01:46:33.434Z,1.00
2023-03-18T01:49:04.815Z,1.00
2023-03-18T01:51:33.467Z,1.00
2023-03-18T01:54:04.638Z,1.00
2023-03-18T01:56:34.771Z,1.00
2023-03-18T01:59:03.627Z,1.00
2023-03-18T02:02:02.738Z,1.00
2023-03-18T02:04:38.385Z,1.00
2023-03-18T02:07:08.716Z,1.00
2023-03-18T02:09:37.594Z,1.00
2023-03-18T02:12:07.469Z,1.00
2023-03-18T02:14:35.996Z,1.00
2023-03-18T02:17:17.668Z,1.00
2023-03-18T02:19:48.851Z,1.00
2023-03-18T02:22:20.355Z,1.00
2023-03-18T02:25:13.717Z,1.00
2023-03-18T02:27:48.292Z,1.00
2023-03-18T02:30:24.459Z,1.00
2023-03-18T02:32:54.024Z,1.00
2023-03-18T02:35:23.177Z,1.00
2023-03-18T02:37:51.752Z,1.00
2023-03-18T02:40:28.110Z,1.00
2023-03-18T02:42:56.707Z,1.00
2023-03-18T02:45:47.265Z,1.00
2023-03-18T02:48:19.891Z,1.00
2023-03-18T02:50:49.338Z,1.00
2023-03-18T02:53:17.906Z,1.00
2023-03-18T02:55:46.530Z,1.00
2023-03-18T02:58:14.965Z,1.00
2023-03-18T03:00:43.589Z,1.00
2023-03-18T03:03:12.223Z,1.00
2023-03-18T03:05:40.777Z,1.00
2023-03-18T03:08:09.489Z,1.00
2023-03-18T03:10:38.144Z,1.00
2023-03-18T03:13:08.242Z,1.00
2023-03-18T03:15:40.390Z,1.00
2023-03-18T03:18:09.887Z,1.00
2023-03-18T03:20:39.829Z,1.00
2023-03-18T03:23:11.576Z,1.00
2023-03-18T03:25:41.496Z,1.00
2023-03-18T03:28:10.269Z,1.00
2023-03-18T03:30:39.344Z,1.00
2023-03-18T03:33:08.204Z,1.00
2023-03-18T03:35:37.378Z,1.00
2023-03-18T03:38:06.200Z,1.00
2023-03-18T03:40:34.930Z,1.00
2023-03-18T03:43:03.880Z,1.00
2023-03-18T03:45:32.486Z,1.00
2023-03-18T03:48:01.147Z,1.00
2023-03-18T03:50:29.861Z,1.00
2023-03-18T03:52:59.088Z,1.00
2023-03-18T03:55:27.826Z,1.00
2023-03-18T03:57:56.520Z,1.00
2023-03-18T04:00:25.809Z,1.00
2023-03-18T04:02:55.117Z,1.00
2023-03-18T04:05:25.452Z,1.00
2023-03-18T04:07:55.565Z,1.00
2023-03-18T04:10:24.141Z,1.00
2023-03-18T04:12:52.614Z,1.00
2023-03-18T04:15:22.847Z,1.00
2023-03-18T04:17:51.701Z,1.00
2023-03-18T04:20:20.353Z,1.00
2023-03-18T04:22:49.441Z,1.00
2023-03-18T04:25:18.072Z,1.00
2023-03-18T04:27:46.588Z,1.00
2023-03-18T04:30:15.699Z,1.00
2023-03-18T04:32:44.153Z,1.00
2023-03-18T04:35:12.904Z,1.00
2023-03-18T04:37:41.340Z,1.00
2023-03-18T04:40:10.784Z,1.00
2023-03-18T04:42:40.295Z,1.00
2023-03-18T04:45:09.165Z,1.00
2023-03-18T04:47:38.964Z,1.00
2023-03-18T04:50:11.726Z,1.00
2023-03-18T04:52:45.852Z,1.00
2023-03-18T04:55:17.349Z,1.00
2023-03-18T04:57:46.964Z,1.00
2023-03-18T05:00:18.478Z,1.00
2023-03-18T05:02:46.876Z,1.00
2023-03-18T05:05:15.735Z,1.00
2023-03-18T05:07:44.175Z,1.00
2023-03-18T05:10:13.580Z,1.00
2023-03-18T05:12:42.901Z,1.00
2023-03-18T05:15:12.350Z,1.00
2023-03-18T05:17:41.603Z,1.00
2023-03-18T05:20:11.587Z,1.00
2023-03-18T05:22:40.912Z,1.00
2023-03-18T05:25:11.952Z,1.00
2023-03-18T05:27:41.929Z,1.00
2023-03-18T05:30:11.902Z,1.00
2023-03-18T05:32:41.797Z,1.00
2023-03-18T05:35:12.082Z,1.00
2023-03-18T05:37:40.694Z,1.00
2023-03-18T05:40:12.471Z,1.00
2023-03-18T05:42:55.312Z,1.00
2023-03-18T05:45:25.241Z,1.00
2023-03-18T05:47:54.154Z,1.00
2023-03-18T05:50:34.032Z,1.00
2023-03-18T05:53:03.621Z,1.00
2023-03-18T05:55:33.057Z,1.00
2023-03-18T05:58:02.715Z,1.00
2023-03-18T06:00:32.505Z,1.00
2023-03-18T06:03:02.700Z,1.00
2023-03-18T06:05:31.984Z,1.00
2023-03-18T06:08:02.158Z,1.00
2023-03-18T06:10:31.986Z,1.00
2023-03-18T06:13:01.064Z,1.00
2023-03-18T06:15:29.532Z,1.00
2023-03-18T06:17:58.429Z,1.00
2023-03-18T06:20:27.008Z,1.00
2023-03-18T06:22:55.492Z,1.00
2023-03-18T06:25:25.140Z,1.00
2023-03-18T06:27:53.700Z,1.00
2023-03-18T06:30:22.568Z,1.00
2023-03-18T06:32:51.110Z,1.00
2023-03-18T06:35:19.712Z,1.00
2023-03-18T06:37:48.155Z,1.00
2023-03-18T06:40:16.728Z,1.00
2023-03-18T06:42:45.709Z,1.00
2023-03-18T06:45:17.863Z,1.00
2023-03-18T06:47:47.411Z,1.00
2023-03-18T06:50:16.413Z,1.00
2023-03-18T06:52:44.888Z,1.00
2023-03-18T06:55:13.875Z,1.00
2023-03-18T06:57:42.498Z,1.00
2023-03-18T07:00:12.154Z,1.00
2023-03-18T07:02:41.200Z,1.00
2023-03-18T07:05:10.517Z,1.00
2023-03-18T07:07:39.500Z,1.00
2023-03-18T07:10:10.174Z,1.00
2023-03-18T07:12:38.555Z,1.00
2023-03-18T07:15:08.326Z,1.00
2023-03-18T07:17:38.146Z,1.00
2023-03-18T07:20:08.147Z,1.00
2023-03-18T07:22:36.874Z,1.00
2023-03-18T07:25:06.948Z,1.00
2023-03-18T07:27:35.521Z,1.00
2023-03-18T07:30:05.391Z,1.00
2023-03-18T07:32:34.639Z,1.00
2023-03-18T07:35:05.001Z,1.00
2023-03-18T07:37:34.363Z,1.00
2023-03-18T07:40:03.184Z,1.00
2023-03-18T07:42:31.728Z,1.00
2023-03-18T07:45:00.349Z,1.00
2023-03-18T07:47:28.741Z,1.00
2023-03-18T07:49:57.172Z,1.00
2023-03-18T07:52:26.185Z,1.00
2023-03-18T07:54:54.566Z,1.00
2023-03-18T07:57:23.078Z,1.00
2023-03-18T07:59:51.774Z,1.00
2023-03-18T08:02:21.218Z,1.00
2023-03-18T08:04:49.857Z,1.00
2023-03-18T08:07:19.454Z,1.00
2023-03-18T08:09:47.916Z,1.00
2023-03-18T08:12:18.817Z,1.00
2023-03-18T08:14:49.073Z,1.00
2023-03-18T08:17:17.939Z,1.00
2023-03-18T08:19:47.836Z,1.00
2023-03-18T08:22:16.772Z,1.00
2023-03-18T08:24:46.493Z,1.00
2023-03-18T08:27:14.926Z,1.00
2023-03-18T08:29:43.364Z,1.00
2023-03-18T08:32:12.542Z,1.00
2023-03-18T08:34:40.915Z,1.00
2023-03-18T08:37:09.990Z,1.00
2023-03-18T08:39:38.478Z,1.00
2023-03-18T08:42:07.238Z,1.00
2023-03-18T08:44:35.653Z,1.00
2023-03-18T08:47:04.093Z,1.00
2023-03-18T08:49:32.511Z,1.00
2023-03-18T08:52:00.951Z,1.00
2023-03-18T08:54:29.412Z,1.00
2023-03-18T08:56:58.114Z,1.00
2023-03-18T08:59:26.621Z,1.00
2023-03-18T09:01:55.087Z,1.00
2023-03-18T09:04:25.512Z,1.00
2023-03-18T09:06:53.954Z,1.00
2023-03-18T09:09:24.589Z,1.00
2023-03-18T09:12:00.102Z,1.00
2023-03-18T09:14:29.063Z,1.00
2023-03-18T09:16:57.571Z,1.00
2023-03-18T09:19:26.148Z,1.00
2023-03-18T09:21:54.901Z,1.00
2023-03-18T09:24:23.776Z,1.00
2023-03-18T09:26:52.309Z,1.00
2023-03-18T09:29:20.732Z,1.00
2023-03-18T09:31:49.105Z,1.00
2023-03-18T09:34:17.576Z,1.00
2023-03-18T09:36:51.847Z,1.00
2023-03-18T09:39:22.513Z,1.00
2023-03-18T09:41:57.082Z,1.00
2023-03-18T09:44:35.356Z,1.00
2023-03-18T09:47:38.502Z,1.00
2023-03-18T09:50:14.423Z,1.00
2023-03-18T09:52:51.411Z,1.00
2023-03-18T09:55:28.241Z,1.00
2023-03-18T09:58:02.710Z,1.00
2023-03-18T10:00:37.242Z,1.00
2023-03-18T10:03:11.959Z,1.00
2023-03-18T10:05:58.596Z,1.00
2023-03-18T10:09:00.633Z,1.00
2023-03-18T10:11:35.918Z,1.00
2023-03-18T10:14:22.710Z,1.00
2023-03-18T10:17:24.670Z,1.00
2023-03-18T10:20:00.201Z,1.00
2023-03-18T10:23:05.979Z,1.00
2023-03-18T10:25:47.049Z,1.00
2023-03-18T10:28:41.092Z,1.00
2023-03-18T10:31:35.548Z,1.00
2023-03-18T10:34:17.277Z,1.00
2023-03-18T10:37:20.697Z,1.00
2023-03-18T10:39:50.965Z,1.00
2023-03-18T10:42:28.234Z,1.00
2023-03-18T10:45:09.655Z,1.00
2023-03-18T10:47:43.436Z,1.00
2023-03-18T10:50:21.572Z,1.00
2023-03-18T10:52:59.119Z,1.00
2023-03-18T10:55:36.216Z,1.00
2023-03-18T10:58:24.824Z,1.00
2023-03-18T11:00:53.209Z,1.00
2023-03-18T11:03:36.924Z,1.00
2023-03-18T11:06:08.513Z,1.00
2023-03-18T11:08:40.448Z,1.00
2023-03-18T11:11:18.340Z,1.00
2023-03-18T11:13:56.795Z,1.00
2023-03-18T11:16:31.295Z,1.00
2023-03-18T11:19:00.786Z,1.00
2023-03-18T11:21:30.200Z,1.00
2023-03-18T11:24:11.353Z,1.00
2023-03-18T11:26:57.623Z,1.00
2023-03-18T11:29:34.166Z,1.00
2023-03-18T11:32:03.233Z,1.00
2023-03-18T11:34:34.000Z,1.00
2023-03-18T11:37:05.604Z,1.00
2023-03-18T11:39:38.397Z,1.00
2023-03-18T11:42:33.498Z,1.00
2023-03-18T11:45:04.407Z,1.00
2023-03-18T11:47:36.072Z,1.00
2023-03-18T11:50:06.360Z,1.00
2023-03-18T11:52:58.452Z,1.00
2023-03-18T11:55:59.842Z,1.00
2023-03-18T11:59:03.638Z,1.00
2023-03-18T12:01:51.157Z,1.00
2023-03-18T12:04:30.468Z,1.00
2023-03-18T12:07:12.885Z,1.00
2023-03-18T12:09:57.756Z,1.00
2023-03-18T12:12:55.105Z,1.00
2023-03-18T12:15:40.039Z,1.00
2023-03-18T12:18:30.235Z,1.00
2023-03-18T12:21:11.414Z,1.00
2023-03-18T12:23:47.221Z,1.00
2023-03-18T12:26:40.213Z,1.00
2023-03-18T12:29:37.054Z,1.00
2023-03-18T12:32:20.363Z,1.00
2023-03-18T12:35:03.547Z,1.00
2023-03-18T12:37:53.285Z,1.00
2023-03-18T12:40:27.599Z,1.00
2023-03-18T12:43:20.175Z,1.00
2023-03-18T12:45:54.624Z,1.00
2023-03-18T12:48:42.695Z,1.00
2023-03-18T12:51:16.784Z,1.00
2023-03-18T12:53:53.306Z,1.00
2023-03-18T12:56:25.861Z,1.00
2023-03-18T12:59:00.225Z,1.00
2023-03-18T13:01:35.738Z,1.00
2023-03-18T13:04:12.841Z,1.00
2023-03-18T13:06:43.445Z,1.00
2023-03-18T13:09:33.626Z,1.00
2023-03-18T13:12:13.392Z,1.00
2023-03-18T13:15:00.696Z,1.00
2023-03-18T13:17:50.389Z,1.00
2023-03-18T13:20:40.434Z,1.00
2023-03-18T13:23:18.226Z,1.00
2023-03-18T13:26:07.005Z,1.00
2023-03-18T13:28:53.982Z,1.00
2023-03-18T13:31:31.630Z,1.00
2023-03-18T13:34:45.362Z,1.00
2023-03-18T13:37:28.988Z,1.00
2023-03-18T13:40:16.117Z,1.00
2023-03-18T13:42:46.507Z,1.00
2023-03-18T13:45:25.250Z,1.00
2023-03-18T13:48:03.589Z,1.00
2023-03-18T13:50:44.084Z,1.00
2023-03-18T13:53:34.121Z,1.00
2023-03-18T13:56:06.706Z,1.00
2023-03-18T13:58:56.013Z,1.00
2023-03-18T14:01:49.366Z,1.00
2023-03-18T14:04:24.293Z,1.00
2023-03-18T14:07:12.491Z,1.00
2023-03-18T14:10:18.452Z,1.00
2023-03-18T14:12:49.028Z,1.00
2023-03-18T14:15:17.500Z,1.00
2023-03-18T14:17:50.395Z,1.00
2023-03-18T14:20:18.800Z,1.00
2023-03-18T14:23:11.481Z,1.00
2023-03-18T14:25:43.174Z,1.00
2023-03-18T14:28:11.571Z,1.00
2023-03-18T14:30:39.906Z,1.00
2023-03-18T14:33:33.954Z,14.70
2023-03-18T14:36:10.673Z,18.90
2023-03-18T14:38:55.859Z,12.70
2023-03-18T14:41:33.404Z,15.30
2023-03-18T14:44:04.956Z,15.00
2023-03-18T14:46:42.058Z,21.50
2023-03-18T14:49:32.655Z,27.50
2023-03-18T14:52:03.507Z,38.70
2023-03-18T14:54:37.092Z,30.70
2023-03-18T14:57:06.261Z,34.50
2023-03-18T14:59:34.653Z,29.60
2023-03-18T15:02:07.498Z,51.50
2023-03-18T15:04:37.161Z,69.20
2023-03-18T15:07:08.329Z,72.90
2023-03-18T15:09:37.576Z,73.90
2023-03-18T15:12:21.223Z,73.30
2023-03-18T15:14:52.096Z,61.70
2023-03-18T15:17:20.829Z,47.00
2023-03-18T15:19:49.217Z,20.30
2023-03-18T15:22:26.756Z,4.90
2023-03-18T15:25:06.477Z,1.00
2023-03-18T15:27:36.412Z,1.00
2023-03-18T15:30:07.666Z,1.00
2023-03-18T15:32:48.812Z,1.00
2023-03-18T15:35:29.444Z,1.00
2023-03-18T15:38:13.552Z,1.00
2023-03-18T15:40:53.582Z,1.00
2023-03-18T15:43:28.069Z,1.00
2023-03-18T15:45:59.832Z,1.00
2023-03-18T15:48:41.126Z,1.00
2023-03-18T15:51:24.239Z,1.00
2023-03-18T15:53:55.941Z,1.00
2023-03-18T15:56:31.218Z,1.00
2023-03-18T15:59:15.036Z,1.00
2023-03-18T16:01:43.552Z,1.00
2023-03-18T16:04:22.560Z,1.00
2023-03-18T16:06:51.375Z,1.00
2023-03-18T16:09:21.063Z,1.00
2023-03-18T16:11:59.219Z,1.00
2023-03-18T16:14:34.468Z,1.00
2023-03-18T16:17:03.500Z,1.00
2023-03-18T16:19:31.971Z,1.00
2023-03-18T16:22:01.205Z,1.00
2023-03-18T16:24:30.368Z,1.00
2023-03-18T16:26:59.050Z,1.00
2023-03-18T16:29:35.844Z,1.00
2023-03-18T16:32:04.357Z,1.00
2023-03-18T16:34:33.091Z,1.00
2023-03-18T16:37:01.658Z,1.00
2023-03-18T16:39:36.002Z,1.00
2023-03-18T16:42:07.082Z,1.00
2023-03-18T16:44:36.655Z,1.00
2023-03-18T16:47:05.639Z,1.00
2023-03-18T16:49:38.117Z,1.00
2023-03-18T16:52:06.752Z,1.00
2023-03-18T16:54:35.555Z,1.00
2023-03-18T16:57:05.795Z,1.00
2023-03-18T16:59:39.116Z,1.00
2023-03-18T17:02:31.665Z,1.00
2023-03-18T17:05:00.256Z,1.00
2023-03-18T17:07:30.348Z,1.00
2023-03-18T17:09:58.800Z,1.00
2023-03-18T17:12:27.266Z,1.00
2023-03-18T17:14:57.978Z,1.00
2023-03-18T17:17:36.786Z,1.00
2023-03-18T17:20:16.315Z,1.00
2023-03-18T17:22:44.914Z,1.00
2023-03-18T17:25:14.629Z,1.00
2023-03-18T17:27:49.745Z,1.00
2023-03-18T17:30:21.039Z,1.00
2023-03-18T17:32:51.017Z,1.00
2023-03-18T17:35:22.615Z,1.00
2023-03-18T17:37:51.738Z,1.00
2023-03-18T17:40:22.187Z,1.00
2023-03-18T17:42:53.352Z,1.00
2023-03-18T17:45:36.338Z,1.00
2023-03-18T17:48:17.020Z,1.00
2023-03-18T17:50:45.823Z,1.00
2023-03-18T17:53:38.369Z,1.00
2023-03-18T17:56:09.235Z,1.00
2023-03-18T17:58:37.934Z,1.00
2023-03-18T18:01:14.776Z,1.00
2023-03-18T18:03:43.427Z,1.00
2023-03-18T18:06:18.759Z,1.00
2023-03-18T18:08:48.297Z,1.00
2023-03-18T18:11:22.850Z,1.00
2023-03-18T18:13:53.103Z,1.00
2023-03-18T18:16:22.367Z,1.00
2023-03-18T18:18:51.326Z,1.00
2023-03-18T18:21:23.042Z,1.00
2023-03-18T18:23:52.123Z,1.00
2023-03-18T18:26:22.843Z,1.00
2023-03-18T18:28:53.453Z,1.00
2023-03-18T18:31:23.710Z,1.00
2023-03-18T18:33:53.254Z,1.00
2023-03-18T18:36:22.235Z,1.00
2023-03-18T18:38:51.631Z,1.00
2023-03-18T18:41:20.023Z,1.00
2023-03-18T18:43:48.443Z,1.00
2023-03-18T18:46:17.197Z,1.00
2023-03-18T18:48:49.354Z,1.00
2023-03-18T18:51:19.905Z,1.00
2023-03-18T18:53:50.482Z,1.00
2023-03-18T18:56:24.305Z,1.00
2023-03-18T18:58:54.092Z,1.00
2023-03-18T19:01:22.610Z,1.00
2023-03-18T19:03:51.238Z,1.00
2023-03-18T19:06:28.228Z,1.00
2023-03-18T19:08:58.607Z,1.00
2023-03-18T19:11:28.139Z,1.00
2023-03-18T19:14:15.794Z,1.00
2023-03-18T19:16:44.297Z,1.00
2023-03-18T19:19:16.135Z,1.00
2023-03-18T19:21:44.635Z,1.00
2023-03-18T19:24:30.506Z,1.00
2023-03-18T19:27:02.381Z,1.00
2023-03-18T19:29:32.016Z,1.00
2023-03-18T19:32:02.103Z,1.00
2023-03-18T19:34:32.849Z,1.00
2023-03-18T19:37:03.576Z,1.00
2023-03-18T19:39:32.498Z,1.00
2023-03-18T19:42:02.003Z,1.00
2023-03-18T19:44:30.442Z,1.00
2023-03-18T19:47:02.282Z,1.00
2023-03-18T19:49:37.836Z,1.00
2023-03-18T19:52:27.243Z,1.00
2023-03-18T19:54:56.303Z,1.00
2023-03-18T19:57:30.772Z,1.00
2023-03-18T20:00:01.369Z,1.00
2023-03-18T20:02:34.664Z,1.00
2023-03-18T20:05:16.656Z,1.00
2023-03-18T20:07:45.037Z,1.00
2023-03-18T20:10:15.356Z,1.00
2023-03-18T20:12:46.222Z,1.00
2023-03-18T20:15:27.963Z,1.00
2023-03-18T20:17:58.998Z,1.00
2023-03-18T20:20:31.081Z,1.00
2023-03-18T20:23:02.811Z,1.00
2023-03-18T20:25:44.400Z,1.00
2023-03-18T20:28:17.833Z,1.00
2023-03-18T20:30:48.422Z,1.00
2023-03-18T20:33:17.024Z,1.00
2023-03-18T20:35:47.800Z,1.00
2023-03-18T20:38:27.751Z,1.00
2023-03-18T20:40:56.795Z,1.00
2023-03-18T20:43:28.655Z,1.00
2023-03-18T20:45:59.295Z,1.00
2023-03-18T20:48:28.822Z,1.00
2023-03-18T20:50:57.430Z,1.00
2023-03-18T20:53:29.026Z,1.00
2023-03-18T20:55:59.046Z,1.00
2023-03-18T20:58:29.380Z,1.00
2023-03-18T21:00:58.313Z,1.00
2023-03-18T21:03:35.567Z,1.00
2023-03-18T21:06:04.751Z,1.00
2023-03-18T21:08:33.994Z,1.00
2023-03-18T21:11:02.920Z,1.00
2023-03-18T21:13:39.620Z,1.00
2023-03-18T21:16:13.865Z,1.00
2023-03-18T21:18:48.420Z,1.00
2023-03-18T21:21:25.371Z,1.00
2023-03-18T21:23:55.854Z,1.00
2023-03-18T21:26:25.032Z,1.00
2023-03-18T21:28:53.639Z,1.00
2023-03-18T21:31:31.985Z,1.00
2023-03-18T21:34:01.848Z,1.00
2023-03-18T21:36:30.236Z,1.00
2023-03-18T21:38:59.268Z,1.00
2023-03-18T21:41:30.076Z,1.00
2023-03-18T21:43:58.845Z,1.00
2023-03-18T21:46:30.608Z,1.00
2023-03-18T21:48:59.176Z,1.00
2023-03-18T21:51:39.712Z,1.00
2023-03-18T21:54:18.929Z,1.00
2023-03-18T21:56:47.392Z,1.00
2023-03-18T21:59:16.990Z,1.00
2023-03-18T22:01:45.481Z,1.00
2023-03-18T22:04:13.974Z,1.00
2023-03-18T22:06:42.411Z,1.00
2023-03-18T22:09:10.825Z,1.00
2023-03-18T22:11:39.267Z,1.00
2023-03-18T22:14:07.659Z,1.00
2023-03-18T22:16:37.028Z,1.00
2023-03-18T22:19:05.436Z,1.00
2023-03-18T22:21:33.827Z,1.00
2023-03-18T22:24:02.319Z,1.00
2023-03-18T22:26:31.173Z,1.00
2023-03-18T22:28:59.567Z,1.00
2023-03-18T22:31:28.631Z,1.00
2023-03-18T22:33:57.601Z,1.00
2023-03-18T22:36:26.424Z,1.00
2023-03-18T22:38:54.862Z,1.00
2023-03-18T22:41:31.906Z,1.00
2023-03-18T22:44:00.853Z,1.00
2023-03-18T22:46:29.427Z,1.00
2023-03-18T22:48:57.848Z,1.00
2023-03-18T22:51:31.044Z,1.00
2023-03-18T22:53:59.649Z,1.00
2023-03-18T22:56:28.093Z,1.00
2023-03-18T22:58:56.885Z,1.00
2023-03-18T23:01:30.591Z,1.00
2023-03-18T23:03:59.130Z,1.00
2023-03-18T23:06:27.964Z,1.00
2023-03-18T23:08:56.622Z,1.00
2023-03-18T23:11:25.653Z,1.00
2023-03-18T23:13:54.730Z,1.00
2023-03-18T23:16:24.559Z,1.00
2023-03-18T23:18:53.539Z,1.00
2023-03-18T23:21:25.426Z,1.00
2023-03-18T23:23:55.993Z,1.00
2023-03-18T23:26:24.392Z,1.00
2023-03-18T23:28:52.790Z,1.00
2023-03-18T23:31:21.468Z,1.00
2023-03-18T23:33:49.959Z,1.00
2023-03-18T23:36:18.406Z,1.00
2023-03-18T23:38:46.893Z,1.00
2023-03-18T23:41:15.285Z,1.00
2023-03-18T23:43:43.672Z,1.00
2023-03-18T23:46:12.681Z,1.00
2023-03-18T23:48:41.208Z,1.00
2023-03-18T23:51:09.677Z,1.00
2023-03-18T23:53:38.167Z,1.00
2023-03-18T23:56:06.843Z,1.00
2023-03-18T23:58:35.254Z,1.00
